Time;durP1;ratioP1;P1;durP2;ratioP2;P2;SDS_P1;SDS_P2;PMS_P1;PMS_P2;Temp;Humidity;BMP_temperature;BMP_pressure;BME280_temperature;BME280_humidity;BME280_pressure;Samples;Min_cycle;Max_cycle;Signal;HPM_P1;HPM_P2
2023/06/17 00:00:32;;;;;;;28.60;16.23;;;;;;;16.86;100.00;100377.77;5025117;56;1145009;-74
2023/06/17 00:05:40;;;;;;;15.37;13.77;;;;;;;16.86;100.00;100375.94;5111109;56;1145067;-72
2023/06/17 00:10:45;;;;;;;15.40;11.20;;;;;;;17.00;100.00;100381.14;5072783;56;1145060;-72
2023/06/17 00:15:53;;;;;;;13.30;10.37;;;;;;;17.01;100.00;100377.97;5075609;56;1145110;-73
2023/06/17 00:20:58;;;;;;;12.60;8.10;;;;;;;16.87;100.00;100371.43;5075554;56;1145026;-69
2023/06/17 00:26:04;;;;;;;10.27;8.70;;;;;;;16.75;100.00;100363.39;5095841;56;1142911;-73
2023/06/17 00:31:10;;;;;;;12.07;8.15;;;;;;;16.66;100.00;100363.01;5076075;56;1142950;-74
2023/06/17 00:36:15;;;;;;;9.57;7.97;;;;;;;16.42;100.00;100354.39;5075122;56;1143177;-66
2023/06/17 00:41:22;;;;;;;9.03;7.53;;;;;;;16.24;100.00;100353.63;5089382;56;1140769;-72
2023/06/17 00:46:37;;;;;;;7.37;6.67;;;;;;;16.05;100.00;100354.20;5056553;56;1140923;-73
2023/06/17 00:51:43;;;;;;;8.83;7.83;;;;;;;15.88;100.00;100360.95;5116437;56;1140842;-72
2023/06/17 00:56:52;;;;;;;13.50;7.67;;;;;;;15.91;100.00;100358.78;5136938;55;1140803;-74
2023/06/17 01:01:56;;;;;;;9.50;8.60;;;;;;;15.94;100.00;100348.30;5109081;56;1142930;-69
2023/06/17 01:07:29;;;;;;;10.84;8.22;;;;;;;15.90;100.00;100347.77;5073134;56;1150102;-71
2023/06/17 01:12:35;;;;;;;9.98;8.30;;;;;;;15.89;100.00;100353.30;4998722;56;1142958;-69
2023/06/17 01:17:46;;;;;;;8.32;7.48;;;;;;;15.74;100.00;100344.50;4996493;56;1140982;-71
2023/06/17 01:22:54;;;;;;;9.87;8.97;;;;;;;15.48;100.00;100345.80;4967193;56;1140933;-70
2023/06/17 01:28:03;;;;;;;11.50;10.30;;;;;;;15.48;100.00;100345.80;4967412;56;1141264;-68
2023/06/17 01:33:13;;;;;;;15.38;10.28;;;;;;;15.47;100.00;100339.28;5007543;56;1145065;-74
2023/06/17 01:38:29;;;;;;;16.05;10.60;;;;;;;15.45;100.00;100341.26;5060463;56;1145396;-69
2023/06/17 01:43:36;;;;;;;12.50;10.13;;;;;;;15.33;100.00;100346.00;5018631;56;1145247;-71
2023/06/17 01:48:43;;;;;;;12.67;8.77;;;;;;;15.23;100.00;100350.59;4999375;57;1144853;-72
2023/06/17 01:53:50;;;;;;;12.60;9.53;;;;;;;15.12;100.00;100349.49;5001870;56;1143078;-71
2023/06/17 01:58:56;;;;;;;11.57;10.10;;;;;;;15.06;100.00;100352.26;5062667;56;1142883;-67
2023/06/17 02:04:02;;;;;;;14.23;10.10;;;;;;;15.25;100.00;100353.10;4998936;56;1147520;-70
2023/06/17 02:09:08;;;;;;;11.13;9.87;;;;;;;15.35;100.00;100352.52;5028709;57;1145286;-72
2023/06/17 02:14:14;;;;;;;20.03;11.50;;;;;;;15.25;100.00;100351.77;5042218;57;1143028;-72
2023/06/17 02:19:21;;;;;;;15.33;8.70;;;;;;;15.13;100.00;100351.14;4990518;56;1145111;-69
2023/06/17 02:24:27;;;;;;;9.53;8.50;;;;;;;14.99;100.00;100354.33;4941005;56;1142840;-72
2023/06/17 02:29:33;;;;;;;9.87;8.97;;;;;;;14.88;100.00;100343.41;4960198;57;1141131;-71
2023/06/17 02:34:42;;;;;;;9.67;8.73;;;;;;;14.80;100.00;100346.50;4964650;56;1141096;-72
2023/06/17 02:39:46;;;;;;;8.63;7.83;;;;;;;14.86;100.00;100341.39;5044500;56;1141024;-72
2023/06/17 02:44:52;;;;;;;10.93;8.97;;;;;;;14.83;100.00;100347.02;5002311;56;1141009;-74
2023/06/17 02:49:57;;;;;;;10.90;9.43;;;;;;;14.95;100.00;100358.31;4990040;56;1142907;-69
2023/06/17 02:55:03;;;;;;;15.47;12.40;;;;;;;15.17;100.00;100355.67;5041397;56;1142937;-67
2023/06/17 03:00:10;;;;;;;12.28;10.86;;;;;;;15.22;100.00;100358.73;5019411;56;1145211;-68
2023/06/17 03:05:16;;;;;;;13.43;11.07;;;;;;;15.08;100.00;100360.10;4955909;57;1145227;-75
2023/06/17 03:10:22;;;;;;;13.95;10.15;;;;;;;15.16;100.00;100366.83;4982977;57;1145546;-70
2023/06/17 03:15:30;;;;;;;12.67;9.93;;;;;;;15.23;100.00;100355.08;4949766;57;1145233;-70
2023/06/17 03:20:38;;;;;;;11.70;10.50;;;;;;;15.14;100.00;100355.48;4969102;57;1143242;-69
2023/06/17 03:25:45;;;;;;;13.37;11.57;;;;;;;15.16;100.00;100354.00;4997433;58;1144966;-72
2023/06/17 03:30:52;;;;;;;12.30;10.80;;;;;;;15.23;100.00;100347.92;4978110;58;1144987;-69
2023/06/17 03:35:58;;;;;;;12.97;10.10;;;;;;;15.03;100.00;100345.90;4977935;58;1145389;-69
2023/06/17 03:41:04;;;;;;;11.17;10.10;;;;;;;14.76;100.00;100346.80;4997745;57;1145061;-70
2023/06/17 03:46:11;;;;;;;12.53;10.43;;;;;;;14.61;100.00;100348.29;4978577;57;1145023;-73
2023/06/17 03:51:17;;;;;;;12.60;11.10;;;;;;;14.63;100.00;100352.13;4978140;58;1145324;-69
2023/06/17 03:56:23;;;;;;;12.78;11.50;;;;;;;14.83;100.00;100354.16;4997837;58;1145026;-66
2023/06/17 04:01:28;;;;;;;12.30;11.00;;;;;;;14.77;100.00;100347.14;4985690;57;1145216;-70
2023/06/17 04:06:36;;;;;;;16.80;11.80;;;;;;;14.67;100.00;100346.83;4977975;58;1145344;-69
2023/06/17 04:11:42;;;;;;;12.77;11.47;;;;;;;14.59;100.00;100342.27;5003171;57;1145175;-73
2023/06/17 04:16:53;;;;;;;13.33;11.90;;;;;;;14.52;100.00;100343.00;5011037;57;1145236;-71
2023/06/17 04:21:59;;;;;;;12.90;11.50;;;;;;;14.37;100.00;100354.11;5011392;57;1145121;-72
2023/06/17 04:27:06;;;;;;;13.40;11.97;;;;;;;14.28;100.00;100356.83;5011205;57;1145082;-68
2023/06/17 04:32:15;;;;;;;12.98;11.63;;;;;;;14.28;100.00;100360.81;5031507;57;1145219;-66
2023/06/17 04:37:20;;;;;;;11.28;9.95;;;;;;;14.34;100.00;100357.09;5012043;57;1145128;-68
2023/06/17 04:42:27;;;;;;;16.10;12.77;;;;;;;14.39;100.00;100347.31;4999350;57;1142985;-66
2023/06/17 04:47:33;;;;;;;15.03;13.47;;;;;;;14.47;100.00;100350.13;4999474;57;1144832;-72
2023/06/17 04:52:44;;;;;;;16.27;12.20;;;;;;;14.60;100.00;100343.95;4978078;57;1145213;-73
2023/06/17 04:57:50;;;;;;;18.57;13.68;;;;;;;14.81;100.00;100357.00;4975233;57;1144980;-75
2023/06/17 05:02:58;;;;;;;17.43;13.47;;;;;;;14.87;100.00;100351.55;4995415;57;1145237;-72
2023/06/17 05:08:04;;;;;;;17.47;13.80;;;;;;;14.92;100.00;100354.12;5031310;57;1144945;-72
2023/06/17 05:13:10;;;;;;;14.00;12.50;;;;;;;14.99;100.00;100351.17;5009533;57;1145270;-71
2023/06/17 05:18:16;;;;;;;18.23;14.30;;;;;;;15.13;100.00;100344.48;5001537;56;1144997;-71
2023/06/17 05:23:22;;;;;;;13.88;12.47;;;;;;;15.28;100.00;100339.45;4926202;58;1145307;-72
2023/06/17 05:28:29;;;;;;;14.73;12.00;;;;;;;15.49;100.00;100338.14;4895461;57;1145673;-71
2023/06/17 05:33:35;;;;;;;10.93;9.53;;;;;;;15.73;100.00;100336.20;4864510;58;1145299;-71
2023/06/17 05:38:41;;;;;;;11.27;10.17;;;;;;;15.96;100.00;100331.65;4924272;58;1143102;-71
2023/06/17 05:43:48;;;;;;;12.20;9.57;;;;;;;16.14;100.00;100338.59;4876902;59;1145035;-69
2023/06/17 05:48:54;;;;;;;9.33;8.40;;;;;;;16.32;100.00;100331.00;4986055;57;1142904;-73
2023/06/17 05:54:00;;;;;;;11.23;8.70;;;;;;;16.38;100.00;100338.35;4907189;59;1140897;-74
2023/06/17 05:59:06;;;;;;;10.80;9.10;;;;;;;16.47;100.00;100337.41;4925684;58;1142812;-75
2023/06/17 06:04:13;;;;;;;10.74;9.24;;;;;;;16.61;100.00;100342.63;4838386;58;1142750;-70
2023/06/17 06:09:19;;;;;;;8.45;7.65;;;;;;;16.73;100.00;100340.02;4931323;57;1143387;-70
2023/06/17 06:14:25;;;;;;;10.13;9.13;;;;;;;16.87;100.00;100343.38;4953523;57;1140809;-66
2023/06/17 06:19:32;;;;;;;7.77;7.07;;;;;;;17.02;100.00;100351.09;4928414;57;1143072;-70
2023/06/17 06:24:37;;;;;;;7.03;6.47;;;;;;;17.21;100.00;100350.80;4926611;57;1140719;-70
2023/06/17 06:29:43;;;;;;;6.93;6.30;;;;;;;17.43;100.00;100351.11;4923304;58;1141170;-67
2023/06/17 06:34:49;;;;;;;8.67;7.00;;;;;;;17.54;100.00;100354.31;4892653;58;1141184;-69
2023/06/17 06:39:55;;;;;;;12.97;7.33;;;;;;;17.66;100.00;100353.99;4987264;58;1141205;-73
2023/06/17 06:45:01;;;;;;;8.30;7.42;;;;;;;17.83;100.00;100356.98;4971679;58;1143108;-71
2023/06/17 06:50:08;;;;;;;7.93;7.13;;;;;;;17.97;100.00;100362.14;4987254;58;1140931;-72
2023/06/17 06:55:14;;;;;;;7.64;7.02;;;;;;;18.05;100.00;100362.11;4967492;58;1140940;-69
2023/06/17 07:00:21;;;;;;;7.95;7.25;;;;;;;18.18;100.00;100356.55;4969975;58;1140992;-68
2023/06/17 07:05:28;;;;;;;8.68;7.87;;;;;;;18.34;100.00;100359.67;5006942;58;1141211;-72
2023/06/17 07:10:39;;;;;;;7.00;6.30;;;;;;;18.46;100.00;100358.82;4987096;58;1140958;-68
2023/06/17 07:15:43;;;;;;;7.40;6.70;;;;;;;18.63;100.00;100349.73;4986601;57;1140829;-70
2023/06/17 07:20:49;;;;;;;8.95;5.53;;;;;;;18.81;100.00;100348.11;4955476;58;1141010;-72
2023/06/17 07:25:56;;;;;;;9.78;6.20;;;;;;;18.92;100.00;100350.41;4939672;58;1141082;-71
2023/06/17 07:31:02;;;;;;;6.40;5.85;;;;;;;18.97;100.00;100344.83;5003082;57;1140963;-72
2023/06/17 07:36:08;;;;;;;6.65;6.00;;;;;;;19.12;100.00;100356.13;5007316;57;1141421;-73
2023/06/17 07:41:14;;;;;;;6.90;6.25;;;;;;;19.22;100.00;100358.91;5043098;57;1141163;-76
2023/06/17 07:46:19;;;;;;;5.50;5.07;;;;;;;19.50;100.00;100350.34;4885863;57;1140887;-70
2023/06/17 07:51:25;;;;;;;5.75;5.30;;;;;;;19.50;100.00;100350.34;5090646;57;1140805;-71
2023/06/17 07:56:30;;;;;;;5.00;4.60;;;;;;;19.65;100.00;100348.53;4885640;57;1140962;-74
2023/06/17 08:01:37;;;;;;;3.90;3.70;;;;;;;19.85;100.00;100355.56;5070490;57;1140840;-75
2023/06/17 08:06:42;;;;;;;4.45;4.05;;;;;;;19.86;100.00;100351.86;5090942;57;1141110;-70
2023/06/17 08:11:48;;;;;;;4.78;3.70;;;;;;;19.97;100.00;100350.06;5070309;57;1141123;-67
2023/06/17 08:16:53;;;;;;;4.87;4.20;;;;;;;20.10;100.00;100350.77;5071219;57;1140838;-70
2023/06/17 08:22:00;;;;;;;4.30;3.90;;;;;;;20.16;100.00;100346.84;4997937;57;1140919;-72
2023/06/17 08:27:09;;;;;;;3.72;3.52;;;;;;;20.31;100.00;100342.80;4965033;58;1140894;-70
2023/06/17 08:32:14;;;;;;;4.22;3.92;;;;;;;20.50;100.00;100352.98;4896491;58;1140826;-70
2023/06/17 08:37:19;;;;;;;4.13;3.83;;;;;;;20.57;100.00;100347.71;4895890;58;1140842;-73
2023/06/17 08:42:28;;;;;;;4.90;3.75;;;;;;;20.71;100.00;100344.16;4915700;58;1140877;-77
2023/06/17 08:47:35;;;;;;;5.55;4.33;;;;;;;20.86;100.00;100347.64;4895373;58;1140829;-71
2023/06/17 08:52:42;;;;;;;3.90;3.55;;;;;;;20.84;100.00;100340.27;4896438;58;1140776;-67
2023/06/17 08:57:54;;;;;;;4.37;4.03;;;;;;;21.05;100.00;100338.13;4915363;58;1140950;-69
2023/06/17 09:03:01;;;;;;;5.80;4.00;;;;;;;21.33;100.00;100335.53;4948209;58;1140895;-73
2023/06/17 09:08:07;;;;;;;3.97;3.77;;;;;;;21.57;100.00;100327.03;4976094;58;1141137;-72
2023/06/17 09:13:13;;;;;;;3.83;3.63;;;;;;;21.62;100.00;100333.19;4995553;58;1140903;-72
2023/06/17 09:18:18;;;;;;;4.40;4.10;;;;;;;21.42;100.00;100331.67;4975844;58;1140890;-72
2023/06/17 09:23:25;;;;;;;6.63;4.20;;;;;;;21.60;100.00;100324.47;4940406;57;1140999;-72
2023/06/17 09:28:32;;;;;;;7.45;4.15;;;;;;;21.66;100.00;100328.58;4998535;58;1141071;-73
2023/06/17 09:33:38;;;;;;;5.22;3.85;;;;;;;21.62;100.00;100325.11;4978847;57;1140985;-76
2023/06/17 09:38:43;;;;;;;4.67;4.28;;;;;;;21.76;100.00;100320.98;4978213;57;1141015;-73
2023/06/17 09:43:56;;;;;;;4.05;3.85;;;;;;;21.97;100.00;100320.61;5044693;57;1140945;-72
2023/06/17 09:49:02;;;;;;;3.72;3.52;;;;;;;21.90;100.00;100317.02;4886926;58;1141008;-72
2023/06/17 09:54:09;;;;;;;5.40;3.97;;;;;;;22.10;100.00;100312.12;4986125;57;1140853;-73
2023/06/17 09:59:18;;;;;;;5.22;4.15;;;;;;;22.45;100.00;100302.66;4998604;57;1140936;-75
2023/06/17 10:04:23;;;;;;;4.37;3.98;;;;;;;22.66;100.00;100303.84;5054646;57;1140898;-77
2023/06/17 10:09:29;;;;;;;4.70;3.87;;;;;;;22.99;100.00;100303.97;5061333;57;1140839;-73
2023/06/17 10:14:36;;;;;;;4.55;4.12;;;;;;;23.09;100.00;100298.16;4998760;57;1141043;-77
2023/06/17 10:19:43;;;;;;;5.72;3.50;;;;;;;23.34;100.00;100298.41;4998733;57;1141001;-71
2023/06/17 10:24:50;;;;;;;4.22;3.77;;;;;;;23.54;100.00;100299.24;5070748;57;1141099;-70
2023/06/17 10:30:00;;;;;;;6.33;3.75;;;;;;;23.48;100.00;100288.75;5062038;57;1140998;-71
2023/06/17 10:35:12;;;;;;;6.87;3.12;;;;;;;23.46;100.00;100287.30;5081886;57;1140912;-73
2023/06/17 10:40:27;;;;;;;3.83;3.52;;;;;;;23.26;99.57;100289.15;5062075;57;1140945;-73
2023/06/17 10:45:56;;;;;;;3.90;3.55;;;;;;;23.14;100.00;100284.89;5083183;56;1138772;-75
2023/06/17 10:51:10;;;;;;;4.17;2.80;;;;;;;23.35;99.20;100279.83;4987980;58;1140994;-72
2023/06/17 10:56:16;;;;;;;3.10;2.80;;;;;;;23.62;100.00;100286.89;5008028;58;1138902;-69
2023/06/17 11:01:22;;;;;;;3.12;2.92;;;;;;;23.68;98.10;100288.73;5015044;57;1140811;-70
2023/06/17 11:06:32;;;;;;;12.75;3.30;;;;;;;23.88;98.89;100285.18;5071070;57;1138752;-71
2023/06/17 11:11:38;;;;;;;3.20;3.00;;;;;;;24.00;97.48;100276.20;5089721;56;1140622;-75
2023/06/17 11:16:43;;;;;;;3.02;2.70;;;;;;;24.13;97.02;100274.84;5040734;56;1138912;-70
2023/06/17 11:22:03;;;;;;;2.95;2.72;;;;;;;24.18;80.36;100275.02;5040621;57;1138891;-73
2023/06/17 11:27:07;;;;;;;2.60;2.40;;;;;;;24.36;75.17;100271.65;4894243;58;1139159;-71
2023/06/17 11:32:13;;;;;;;2.12;2.02;;;;;;;24.44;70.80;100274.65;4926399;58;1139002;-71
2023/06/17 11:37:20;;;;;;;3.60;3.30;;;;;;;24.14;70.61;100275.13;4906938;58;1138876;-69
2023/06/17 11:42:25;;;;;;;3.50;3.27;;;;;;;24.08;74.10;100263.83;4906862;58;1138978;-74
2023/06/17 11:47:36;;;;;;;3.02;2.83;;;;;;;24.43;74.54;100261.66;5029613;58;1139090;-70
2023/06/17 11:52:41;;;;;;;6.42;3.95;;;;;;;24.50;70.45;100262.43;4900171;59;1138713;-74
2023/06/17 11:57:48;;;;;;;3.87;3.58;;;;;;;24.29;69.50;100265.43;4900281;59;1138954;-72
2023/06/17 12:02:57;;;;;;;5.87;2.90;;;;;;;24.05;73.05;100266.12;4900545;59;1139065;-72
2023/06/17 12:08:03;;;;;;;5.22;3.58;;;;;;;24.00;75.41;100262.70;4916498;59;1138882;-73
2023/06/17 12:13:13;;;;;;;5.58;4.25;;;;;;;23.90;74.89;100254.74;4900429;59;1138870;-73
2023/06/17 12:18:19;;;;;;;4.40;3.56;;;;;;;23.81;74.47;100256.33;4900328;59;1138947;-75
2023/06/17 12:23:25;;;;;;;4.53;4.12;;;;;;;23.60;77.04;100258.44;4846787;59;1138860;-73
2023/06/17 12:28:32;;;;;;;4.25;3.95;;;;;;;23.47;76.51;100254.69;4829151;58;1138956;-74
2023/06/17 12:33:39;;;;;;;9.55;4.97;;;;;;;23.39;78.00;100252.19;4895655;57;1138813;-72
2023/06/17 12:38:46;;;;;;;4.97;4.17;;;;;;;23.30;77.75;100260.20;4915369;58;1139201;-69
2023/06/17 12:43:52;;;;;;;5.08;4.67;;;;;;;23.20;77.14;100263.02;4876993;57;1138647;-74
2023/06/17 12:48:57;;;;;;;8.83;4.60;;;;;;;23.15;79.43;100266.32;4873886;58;1138806;-71
2023/06/17 12:54:03;;;;;;;5.55;5.15;;;;;;;23.22;82.58;100264.44;4907200;58;1139115;-74
2023/06/17 12:59:08;;;;;;;6.65;4.72;;;;;;;23.23;82.41;100261.22;4849049;59;1138674;-74
2023/06/17 13:04:14;;;;;;;6.45;5.20;;;;;;;23.37;84.49;100265.61;4899929;58;1138873;-75
2023/06/17 13:09:20;;;;;;;6.85;5.45;;;;;;;23.65;87.75;100274.33;4895848;58;1138946;-73
2023/06/17 13:14:27;;;;;;;7.00;5.55;;;;;;;23.62;89.70;100292.81;4926951;58;1138778;-65
2023/06/17 13:19:33;;;;;;;5.62;4.87;;;;;;;23.01;88.83;100307.81;4973040;57;1138764;-68
2023/06/17 13:24:38;;;;;;;12.37;5.15;;;;;;;22.31;90.01;100304.95;4829562;59;1138980;-79
2023/06/17 13:29:44;;;;;;;12.37;5.42;;;;;;;21.76;94.70;100314.76;4842677;59;1140957;-75
2023/06/17 13:34:50;;;;;;;9.10;5.72;;;;;;;21.39;97.33;100338.78;4993966;57;1140899;-72
2023/06/17 13:39:56;;;;;;;13.10;5.80;;;;;;;21.14;100.00;100351.77;5062305;57;1138904;-76
2023/06/17 13:45:04;;;;;;;13.90;6.23;;;;;;;21.12;100.00;100355.66;4995886;57;1143184;-72
2023/06/17 13:50:09;;;;;;;11.88;5.75;;;;;;;21.22;100.00;100368.34;4998877;57;1142934;-76
2023/06/17 13:55:15;;;;;;;8.95;6.28;;;;;;;21.25;100.00;100362.55;5065643;57;1143085;-73
2023/06/17 14:00:21;;;;;;;8.38;6.65;;;;;;;21.27;100.00;100364.53;5042946;56;1140808;-72
2023/06/17 14:05:26;;;;;;;10.48;3.90;;;;;;;21.31;100.00;100342.95;5065487;57;1140852;-71
2023/06/17 14:10:32;;;;;;;20.27;12.37;;;;;;;21.32;100.00;100345.97;5021278;57;1143291;-75
2023/06/17 14:15:38;;;;;;;10.20;8.25;;;;;;;21.55;100.00;100336.33;5060358;57;1145203;-77
2023/06/17 14:20:43;;;;;;;4.55;4.22;;;;;;;21.86;98.56;100318.44;5081509;56;1143144;-75
2023/06/17 14:25:49;;;;;;;5.55;4.15;;;;;;;21.86;98.56;100318.44;5061148;57;1139175;-71
2023/06/17 14:30:54;;;;;;;5.35;3.75;;;;;;;21.62;96.12;100315.70;5062096;57;1138992;-71
2023/06/17 14:36:00;;;;;;;3.72;3.45;;;;;;;21.36;95.51;100333.30;5059425;57;1139090;-69
2023/06/17 14:41:06;;;;;;;4.08;3.25;;;;;;;21.11;95.46;100331.97;5031582;56;1138739;-70
2023/06/17 14:46:13;;;;;;;5.28;4.78;;;;;;;20.81;95.48;100321.83;4998962;57;1138814;-73
2023/06/17 14:51:19;;;;;;;8.98;3.52;;;;;;;20.67;96.31;100324.89;4998987;57;1138785;-71
2023/06/17 14:56:32;;;;;;;8.03;4.15;;;;;;;20.66;97.45;100322.38;5018745;58;1138888;-77
2023/06/17 15:01:39;;;;;;;4.40;4.00;;;;;;;20.70;97.90;100315.62;4968480;57;1139014;-76
2023/06/17 15:06:45;;;;;;;4.17;3.70;;;;;;;20.94;99.34;100321.97;4979563;56;1139414;-71
2023/06/17 15:11:55;;;;;;;4.15;3.87;;;;;;;21.09;98.62;100321.91;4999394;56;1138771;-73
2023/06/17 15:17:02;;;;;;;4.60;4.20;;;;;;;21.22;98.90;100326.13;4886698;57;1138819;-72
2023/06/17 15:22:07;;;;;;;4.87;4.45;;;;;;;21.37;98.54;100328.23;4980339;56;1138938;-72
2023/06/17 15:27:13;;;;;;;6.55;4.58;;;;;;;21.43;98.44;100329.81;4907124;57;1138931;-74
2023/06/17 15:32:19;;;;;;;5.33;4.08;;;;;;;21.48;97.48;100323.34;4980900;56;1138935;-73
2023/06/17 15:37:24;;;;;;;7.40;4.37;;;;;;;21.58;97.80;100324.66;4963713;57;1138987;-74
2023/06/17 15:42:30;;;;;;;4.87;4.20;;;;;;;21.86;97.82;100313.05;4994743;57;1138723;-75
2023/06/17 15:47:36;;;;;;;6.53;3.75;;;;;;;22.10;97.46;100313.98;4947363;58;1138711;-75
2023/06/17 15:52:41;;;;;;;5.72;3.80;;;;;;;22.21;95.19;100312.06;4899410;58;1138817;-75
2023/06/17 15:57:47;;;;;;;4.62;4.17;;;;;;;22.30;95.06;100316.27;4943351;56;1139073;-75
2023/06/17 16:02:52;;;;;;;7.90;6.42;;;;;;;22.36;94.30;100306.02;4979867;56;1138848;-76
2023/06/17 16:07:58;;;;;;;11.90;10.60;;;;;;;22.37;91.92;100313.59;4979805;57;1138734;-72
2023/06/17 16:13:04;;;;;;;37.35;23.35;;;;;;;22.32;91.89;100312.00;4976606;57;1143100;-69
2023/06/17 16:18:10;;;;;;;13.58;11.63;;;;;;;22.13;89.57;100303.33;4950489;56;1143093;-72
2023/06/17 16:23:16;;;;;;;4.17;3.87;;;;;;;22.09;90.63;100299.67;4925820;57;1143002;-70
2023/06/17 16:28:22;;;;;;;5.58;5.05;;;;;;;22.00;89.65;100304.89;4978614;57;1139193;-74
2023/06/17 16:33:28;;;;;;;4.03;3.72;;;;;;;21.90;89.50;100315.67;4997793;57;1139033;-72
2023/06/17 16:38:33;;;;;;;8.00;7.17;;;;;;;21.75;89.24;100309.89;5011489;57;1139212;-73
2023/06/17 16:43:39;;;;;;;43.52;32.13;;;;;;;21.62;90.56;100316.53;4953329;57;1138937;-76
2023/06/17 16:48:45;;;;;;;36.85;23.98;;;;;;;21.59;91.35;100320.12;4966276;57;1143153;-77
2023/06/17 16:53:50;;;;;;;14.07;11.38;;;;;;;21.59;92.15;100314.73;4911035;58;1143123;-81
2023/06/17 16:58:56;;;;;;;6.65;6.08;;;;;;;21.49;92.01;100308.35;5080758;57;1143120;-81
2023/06/17 17:04:05;;;;;;;6.05;5.45;;;;;;;21.45;92.24;100312.97;5075417;57;1138890;-76
2023/06/17 17:09:11;;;;;;;8.88;7.50;;;;;;;21.45;92.72;100324.56;4986080;58;1138901;-74
2023/06/17 17:14:16;;;;;;;10.95;9.85;;;;;;;21.43;92.57;100318.53;4904622;59;1138660;-79
2023/06/17 17:19:22;;;;;;;19.07;16.80;;;;;;;21.37;93.26;100311.26;4904586;59;1141090;-69
2023/06/17 17:24:28;;;;;;;8.90;7.73;;;;;;;21.40;93.96;100317.06;4922609;58;1143029;-76
2023/06/17 17:29:34;;;;;;;6.57;5.97;;;;;;;21.38;93.60;100321.83;4904979;59;1138753;-77
2023/06/17 17:34:40;;;;;;;8.40;6.23;;;;;;;21.32;93.70;100315.87;4904660;58;1138759;-74
2023/06/17 17:39:45;;;;;;;18.05;11.70;;;;;;;21.31;94.33;100316.05;4924432;58;1139011;-72
2023/06/17 17:44:51;;;;;;;8.08;6.45;;;;;;;21.30;94.66;100317.08;4948170;57;1143064;-74
2023/06/17 17:49:57;;;;;;;4.97;4.58;;;;;;;21.24;94.97;100313.81;4814516;57;1138879;-70
2023/06/17 17:55:02;;;;;;;5.97;5.45;;;;;;;21.12;94.54;100316.66;4895929;58;1138975;-68
2023/06/17 18:00:09;;;;;;;7.67;6.97;;;;;;;21.05;95.61;100327.38;4930274;58;1139082;-75
2023/06/17 18:05:16;;;;;;;9.65;8.40;;;;;;;21.00;95.84;100327.94;4783878;59;1138931;-70
2023/06/17 18:10:22;;;;;;;10.90;8.78;;;;;;;20.99;96.98;100330.30;4886631;58;1139299;-77
2023/06/17 18:15:29;;;;;;;8.93;7.50;;;;;;;21.11;97.42;100337.86;4821390;58;1141180;-78
2023/06/17 18:20:34;;;;;;;6.65;6.03;;;;;;;21.00;96.68;100341.89;4815911;58;1139081;-69
2023/06/17 18:25:40;;;;;;;7.05;5.85;;;;;;;20.80;96.68;100348.39;4817510;59;1138884;-71
2023/06/17 18:30:45;;;;;;;6.95;6.25;;;;;;;20.64;97.74;100353.47;4843773;58;1138727;-72
2023/06/17 18:35:51;;;;;;;8.75;7.30;;;;;;;20.62;98.49;100360.89;4874270;58;1138701;-73
2023/06/17 18:40:56;;;;;;;9.43;5.72;;;;;;;20.58;98.82;100366.34;4820571;58;1138838;-75
2023/06/17 18:46:02;;;;;;;7.10;6.40;;;;;;;20.46;98.96;100372.37;4993030;56;1139000;-80
2023/06/17 18:51:09;;;;;;;8.15;5.40;;;;;;;20.44;99.51;100370.38;5012462;56;1138987;-76
2023/06/17 18:56:17;;;;;;;6.62;6.03;;;;;;;20.51;100.00;100358.69;4992602;56;1138809;-75
2023/06/17 19:01:23;;;;;;;32.52;20.18;;;;;;;20.55;100.00;100360.50;5002936;57;1140981;-75
2023/06/17 19:06:28;;;;;;;31.68;20.72;;;;;;;20.63;100.00;100364.41;4997891;56;1145128;-74
2023/06/17 19:11:34;;;;;;;28.43;17.50;;;;;;;20.68;100.00;100360.66;4944074;57;1144815;-77
2023/06/17 19:16:40;;;;;;;25.48;14.65;;;;;;;20.75;100.00;100360.23;4935622;56;1144986;-79
2023/06/17 19:21:45;;;;;;;33.02;19.57;;;;;;;20.64;100.00;100353.47;5009984;56;1145443;-76
2023/06/17 19:26:51;;;;;;;29.45;20.85;;;;;;;20.47;100.00;100361.95;5017123;56;1144960;-76
2023/06/17 19:31:56;;;;;;;20.82;12.63;;;;;;;20.36;100.00;100360.05;5039664;57;1144816;-75
2023/06/17 19:37:02;;;;;;;21.12;15.38;;;;;;;20.26;100.00;100361.33;5036037;56;1145127;-73
2023/06/17 19:42:08;;;;;;;17.92;13.53;;;;;;;20.23;100.00;100371.09;5037572;57;1145068;-78
2023/06/17 19:47:15;;;;;;;13.65;11.55;;;;;;;20.15;100.00;100388.14;5095130;55;1145090;-72
2023/06/17 19:52:21;;;;;;;16.70;7.92;;;;;;;19.60;100.00;100404.06;5103469;56;1144980;-70
2023/06/17 19:57:26;;;;;;;10.85;9.63;;;;;;;18.93;100.00;100411.04;4997988;57;1142866;-73
2023/06/17 20:02:32;;;;;;;13.30;11.10;;;;;;;18.77;100.00;100404.42;5031718;56;1142976;-70
2023/06/17 20:07:38;;;;;;;23.80;16.00;;;;;;;18.93;100.00;100404.34;5020206;56;1144970;-73
2023/06/17 20:12:43;;;;;;;18.85;14.95;;;;;;;19.07;100.00;100402.25;5040406;56;1145262;-72
2023/06/17 20:17:49;;;;;;;16.17;12.30;;;;;;;19.15;100.00;100412.91;5020301;56;1144877;-72
2023/06/17 20:22:55;;;;;;;18.90;13.20;;;;;;;18.91;100.00;100421.94;5063710;55;1145347;-77
2023/06/17 20:28:00;;;;;;;13.82;12.30;;;;;;;18.80;100.00;100432.18;4933749;55;1145194;-70
2023/06/17 20:33:06;;;;;;;17.35;14.00;;;;;;;18.90;100.00;100428.80;4946804;57;1145382;-73
2023/06/17 20:38:13;;;;;;;20.25;12.95;;;;;;;19.04;100.00;100425.88;4980060;56;1145081;-71
2023/06/17 20:43:19;;;;;;;14.63;12.93;;;;;;;18.94;100.00;100419.41;5088838;56;1145289;-68
2023/06/17 20:48:25;;;;;;;16.07;13.22;;;;;;;18.98;100.00;100416.69;5082261;57;1145103;-70
2023/06/17 20:53:31;;;;;;;18.30;14.00;;;;;;;18.87;100.00;100421.11;5045808;56;1145126;-67
2023/06/17 20:58:36;;;;;;;16.67;13.22;;;;;;;18.70;100.00;100423.02;5036328;57;1145305;-75
2023/06/17 21:03:42;;;;;;;22.37;18.65;;;;;;;18.76;100.00;100413.47;5090237;57;1145291;-71
2023/06/17 21:08:47;;;;;;;18.55;15.40;;;;;;;18.59;100.00;100411.36;5069556;57;1145100;-72
2023/06/17 21:13:53;;;;;;;24.27;14.68;;;;;;;18.61;100.00;100411.52;5069857;57;1145545;-74
2023/06/17 21:18:59;;;;;;;20.40;14.20;;;;;;;18.66;100.00;100415.00;5069517;57;1145155;-72
2023/06/17 21:24:05;;;;;;;20.43;16.37;;;;;;;18.55;100.00;100414.01;5090101;57;1145112;-77
2023/06/17 21:29:11;;;;;;;22.10;16.60;;;;;;;18.46;100.00;100418.57;5069905;57;1145110;-74
2023/06/17 21:34:16;;;;;;;19.35;16.27;;;;;;;18.33;100.00;100420.95;5070290;57;1144920;-76
2023/06/17 21:39:22;;;;;;;16.07;14.10;;;;;;;18.17;100.00;100419.66;5090331;57;1144946;-75
2023/06/17 21:44:28;;;;;;;18.70;15.45;;;;;;;18.08;100.00;100426.01;5013549;57;1145016;-73
2023/06/17 21:49:36;;;;;;;21.57;18.97;;;;;;;18.21;100.00;100426.31;5063506;56;1145147;-72
2023/06/17 21:54:40;;;;;;;22.22;17.80;;;;;;;18.27;100.00;100425.14;5105648;57;1145361;-70
2023/06/17 21:59:46;;;;;;;23.05;18.82;;;;;;;18.23;100.00;100433.17;5085548;56;1145140;-72
2023/06/17 22:04:52;;;;;;;26.48;18.40;;;;;;;18.23;100.00;100432.34;5071709;57;1145125;-73
2023/06/17 22:09:57;;;;;;;17.07;13.05;;;;;;;18.26;100.00;100432.84;5072849;57;1145254;-75
2023/06/17 22:15:03;;;;;;;18.02;13.83;;;;;;;18.29;100.00;100431.67;5092851;57;1145071;-78
2023/06/17 22:20:10;;;;;;;24.95;19.52;;;;;;;18.32;100.00;100435.35;5018049;56;1145077;-73
2023/06/17 22:25:16;;;;;;;18.57;14.00;;;;;;;18.20;100.00;100445.55;5030716;57;1145063;-75
2023/06/17 22:30:22;;;;;;;17.98;14.20;;;;;;;17.98;100.00;100451.63;5092730;57;1145209;-73
2023/06/17 22:35:28;;;;;;;17.90;13.25;;;;;;;17.88;100.00;100453.11;5073729;57;1145133;-71
2023/06/17 22:40:33;;;;;;;17.77;13.80;;;;;;;17.84;100.00;100453.14;5073598;57;1145201;-71
2023/06/17 22:45:39;;;;;;;16.75;14.53;;;;;;;17.62;100.00;100443.55;5104141;57;1145168;-71